createdAt,value
2018-07-05T00:02:03.895Z,68.70
2018-07-05T00:07:18.373Z,68.90
2018-07-05T00:12:32.885Z,69.10
2018-07-05T00:17:47.449Z,70.00
2018-07-05T00:23:02.025Z,70.60
2018-07-05T00:28:16.709Z,70.80
2018-07-05T00:33:31.393Z,71.10
2018-07-05T00:38:45.881Z,71.00
2018-07-05T00:44:00.465Z,70.90
2018-07-05T00:49:14.897Z,70.70
2018-07-05T00:54:29.235Z,70.50
2018-07-05T00:59:43.862Z,71.20
2018-07-05T01:04:58.369Z,71.30
2018-07-05T01:10:12.848Z,71.50
2018-07-05T01:15:27.145Z,71.80
2018-07-05T01:20:41.769Z,72.30
2018-07-05T01:25:56.377Z,72.50
2018-07-05T01:31:11.072Z,72.80
2018-07-05T01:36:25.676Z,72.80
2018-07-05T01:41:40.162Z,73.10
2018-07-05T01:46:54.753Z,73.20
2018-07-05T01:52:12.952Z,73.40
2018-07-05T01:57:27.457Z,73.50
2018-07-05T02:02:42.017Z,73.60
2018-07-05T02:07:56.514Z,73.80
2018-07-05T02:13:11.177Z,74.10
2018-07-05T02:18:25.666Z,74.40
2018-07-05T02:23:40.345Z,74.30
2018-07-05T02:28:54.684Z,74.20
2018-07-05T02:39:29.341Z,74.10
2018-07-05T02:44:43.975Z,74.00
2018-07-05T02:49:58.529Z,74.80
2018-07-05T02:55:13.121Z,73.70
2018-07-05T03:00:27.685Z,73.90
2018-07-05T03:05:42.192Z,74.20
2018-07-05T03:10:56.928Z,74.50
2018-07-05T03:16:11.469Z,74.40
2018-07-05T03:21:26.034Z,74.80
2018-07-05T03:26:40.597Z,75.00
2018-07-05T03:31:55.169Z,75.60
2018-07-05T03:37:09.881Z,75.40
2018-07-05T03:42:24.177Z,75.50
2018-07-05T03:47:38.612Z,75.50
2018-07-05T03:52:53.065Z,75.80
2018-07-05T03:58:07.612Z,76.20
2018-07-05T04:03:22.176Z,76.30
2018-07-05T04:08:36.756Z,76.30
2018-07-05T04:13:51.237Z,76.30
2018-07-05T04:19:05.874Z,76.30
2018-07-05T04:24:20.373Z,76.20
2018-07-05T04:29:35.063Z,76.60
2018-07-05T04:34:49.501Z,77.00
2018-07-05T04:40:03.915Z,77.30
2018-07-05T04:45:18.541Z,77.50
2018-07-05T04:50:33.149Z,78.10
2018-07-05T04:55:47.697Z,78.40
2018-07-05T05:01:02.208Z,78.40
2018-07-05T05:06:16.544Z,78.50
2018-07-05T05:11:31.094Z,78.70
2018-07-05T05:16:45.505Z,79.20
2018-07-05T05:21:59.773Z,78.20
2018-07-05T05:27:14.329Z,78.00
2018-07-05T05:32:28.701Z,78.00
2018-07-05T05:37:43.381Z,77.80
2018-07-05T05:42:57.853Z,77.40
2018-07-05T05:48:12.292Z,77.20
2018-07-05T05:53:26.618Z,76.70
2018-07-05T05:58:41.080Z,76.30
2018-07-05T06:03:55.545Z,75.50
2018-07-05T06:09:10.115Z,74.60
2018-07-05T06:14:24.721Z,74.30
2018-07-05T06:19:39.179Z,73.80
2018-07-05T06:24:53.815Z,73.00
2018-07-05T06:30:08.449Z,71.90
2018-07-05T06:35:22.986Z,71.40
2018-07-05T06:40:37.640Z,71.00
2018-07-05T06:45:52.051Z,70.60
2018-07-05T06:51:07.093Z,69.50
2018-07-05T06:56:21.425Z,69.10
2018-07-05T07:01:35.922Z,68.10
2018-07-05T07:06:50.440Z,67.20
2018-07-05T07:12:04.989Z,66.20
2018-07-05T07:17:19.545Z,65.10
2018-07-05T07:22:34.082Z,64.40
2018-07-05T07:27:48.573Z,63.40
2018-07-05T07:33:03.755Z,63.20
2018-07-05T07:38:18.290Z,62.60
2018-07-05T07:43:20.449Z,61.70
2018-07-05T07:48:22.625Z,61.30
2018-07-05T07:53:24.769Z,60.20
2018-07-05T07:58:26.929Z,59.40
2018-07-05T08:03:29.073Z,58.30
2018-07-05T08:08:31.232Z,57.20
2018-07-05T08:13:33.381Z,55.90
2018-07-05T08:18:35.533Z,55.40
2018-07-05T08:23:37.681Z,55.30
2018-07-05T08:28:39.829Z,54.60
2018-07-05T08:33:41.981Z,54.60
2018-07-05T08:38:44.121Z,55.00
2018-07-05T08:43:46.265Z,54.70
2018-07-05T08:48:48.408Z,54.30
2018-07-05T08:53:50.553Z,54.10
2018-07-05T08:58:52.788Z,53.00
2018-07-05T09:03:54.935Z,53.70
2018-07-05T09:08:57.088Z,53.40
2018-07-05T09:13:59.321Z,51.80
2018-07-05T09:19:01.552Z,51.50
2018-07-05T09:24:03.690Z,52.00
2018-07-05T09:29:05.937Z,52.10
2018-07-05T09:34:08.081Z,51.40
2018-07-05T09:39:10.233Z,50.50
2018-07-05T09:44:12.375Z,50.80
2018-07-05T09:49:14.516Z,48.60
2018-07-05T09:54:16.664Z,47.40
2018-07-05T09:59:18.823Z,46.50
2018-07-05T10:04:21.001Z,46.40
2018-07-05T10:09:23.154Z,46.50
2018-07-05T10:14:25.305Z,46.20
2018-07-05T10:19:27.469Z,45.90
2018-07-05T10:24:29.604Z,44.80
2018-07-05T10:29:44.352Z,44.50
2018-07-05T10:34:46.496Z,44.80
2018-07-05T10:40:01.013Z,44.60
2018-07-05T10:45:16.348Z,44.70
2018-07-05T10:50:30.806Z,45.00
2018-07-05T10:55:45.263Z,44.20
2018-07-05T11:00:59.717Z,45.10
2018-07-05T11:06:14.313Z,44.60
2018-07-05T11:11:28.837Z,44.40
2018-07-05T11:16:43.509Z,44.10
2018-07-05T11:21:58.121Z,44.10
2018-07-05T11:27:12.620Z,44.60
2018-07-05T11:32:27.881Z,43.70
2018-07-05T11:37:42.248Z,43.90
2018-07-05T11:42:56.721Z,43.80
2018-07-05T11:48:11.282Z,44.30
2018-07-05T11:53:25.813Z,44.30
2018-07-05T11:58:40.218Z,44.40
2018-07-05T12:03:54.686Z,44.60
2018-07-05T12:09:09.681Z,44.00
2018-07-05T12:14:24.320Z,44.50
2018-07-05T12:19:38.786Z,44.60
2018-07-05T12:24:53.333Z,43.40
2018-07-05T12:30:07.846Z,43.50
2018-07-05T12:35:22.261Z,42.90
2018-07-05T12:40:36.685Z,42.80
2018-07-05T12:45:51.070Z,43.30
2018-07-05T12:51:05.652Z,43.60
2018-07-05T12:56:20.246Z,43.00
2018-07-05T13:01:34.846Z,42.50
2018-07-05T13:06:49.254Z,42.60
2018-07-05T13:12:03.766Z,42.30
2018-07-05T13:17:18.059Z,43.20
2018-07-05T13:22:32.782Z,43.30
2018-07-05T13:27:47.149Z,43.90
2018-07-05T13:33:02.964Z,44.10
2018-07-05T13:38:17.912Z,44.10
2018-07-05T13:43:32.370Z,43.20
2018-07-05T13:48:46.818Z,43.60
2018-07-05T13:54:01.273Z,43.60
2018-07-05T13:59:15.809Z,43.30
2018-07-05T14:04:30.434Z,43.50
2018-07-05T14:09:45.057Z,43.80
2018-07-05T14:14:59.801Z,42.80
2018-07-05T14:20:15.088Z,42.60
2018-07-05T14:25:29.435Z,42.80
2018-07-05T14:30:44.004Z,42.90
2018-07-05T14:35:58.506Z,42.60
2018-07-05T14:41:13.056Z,42.60
2018-07-05T14:46:27.537Z,42.90
2018-07-05T14:51:41.886Z,43.10
2018-07-05T14:56:56.477Z,43.10
2018-07-05T15:02:11.053Z,43.10
2018-07-05T15:07:25.604Z,43.40
2018-07-05T15:12:40.370Z,43.30
2018-07-05T15:17:54.618Z,43.50
2018-07-05T15:23:09.137Z,44.70
2018-07-05T15:28:23.617Z,43.30
2018-07-05T15:33:38.105Z,42.60
2018-07-05T15:38:52.759Z,41.10
2018-07-05T15:44:07.337Z,40.70
2018-07-05T15:49:21.884Z,41.70
2018-07-05T15:54:36.408Z,41.60
2018-07-05T15:59:50.794Z,40.90
2018-07-05T16:05:05.309Z,41.10
2018-07-05T16:10:19.860Z,41.50
2018-07-05T16:15:34.236Z,41.50
2018-07-05T16:20:49.088Z,41.40
2018-07-05T16:26:04.670Z,41.20
2018-07-05T16:31:19.232Z,40.40
2018-07-05T16:36:33.662Z,40.10
2018-07-05T16:41:48.249Z,39.00
2018-07-05T16:47:02.696Z,38.70
2018-07-05T16:52:17.393Z,38.30
2018-07-05T16:57:31.845Z,37.80
2018-07-05T17:02:46.339Z,38.20
2018-07-05T17:08:00.856Z,38.30
2018-07-05T17:13:15.441Z,37.70
2018-07-05T17:18:29.921Z,37.40
2018-07-05T17:23:45.268Z,37.80
2018-07-05T17:28:59.653Z,37.70
2018-07-05T17:34:14.102Z,37.60
2018-07-05T17:39:28.709Z,38.20
2018-07-05T17:44:43.196Z,38.10
2018-07-05T17:49:57.730Z,37.80
2018-07-05T17:55:12.304Z,37.70
2018-07-05T18:05:35.344Z,39.30
2018-07-05T18:10:49.802Z,39.50
2018-07-05T18:16:04.521Z,39.20
2018-07-05T18:21:19.051Z,39.80
2018-07-05T18:26:33.615Z,40.70
2018-07-05T18:31:47.898Z,41.60
2018-07-05T18:37:02.493Z,42.40
2018-07-05T18:42:16.949Z,43.10
2018-07-05T18:47:31.396Z,43.70
2018-07-05T18:52:46.041Z,44.40
2018-07-05T18:58:03.442Z,44.80
2018-07-05T19:03:18.756Z,45.40
2018-07-05T19:08:33.520Z,46.10
2018-07-05T19:13:49.817Z,46.80
2018-07-05T19:19:05.638Z,47.70
2018-07-05T19:24:20.202Z,48.40
2018-07-05T19:29:34.801Z,49.20
2018-07-05T19:34:49.300Z,50.10
2018-07-05T19:40:03.865Z,51.40
2018-07-05T19:45:18.330Z,52.40
2018-07-05T19:50:32.860Z,53.00
2018-07-05T19:55:47.191Z,53.50
2018-07-05T20:01:01.646Z,53.90
2018-07-05T20:06:16.244Z,54.20
2018-07-05T20:11:30.829Z,54.60
2018-07-05T20:16:45.268Z,55.10
2018-07-05T20:22:00.628Z,55.40
2018-07-05T20:27:15.097Z,55.90
2018-07-05T20:32:29.557Z,56.10
2018-07-05T20:37:43.972Z,56.50
2018-07-05T20:42:58.448Z,56.80
2018-07-05T20:48:13.113Z,56.90
2018-07-05T20:53:27.529Z,57.30
2018-07-05T20:58:41.821Z,57.70
2018-07-05T21:03:56.437Z,58.00
2018-07-05T21:09:10.851Z,58.20
2018-07-05T21:14:25.317Z,58.30
2018-07-05T21:19:39.888Z,58.60
2018-07-05T21:24:54.465Z,58.80
2018-07-05T21:30:08.885Z,58.80
2018-07-05T21:35:23.301Z,58.90
2018-07-05T21:40:37.824Z,59.00
2018-07-05T21:45:52.488Z,59.20
2018-07-05T21:51:06.916Z,59.30
2018-07-05T21:56:21.361Z,59.70
2018-07-05T22:01:35.802Z,60.00
2018-07-05T22:06:50.350Z,61.30
2018-07-05T22:12:04.825Z,60.90
2018-07-05T22:17:24.761Z,61.20
2018-07-05T22:22:44.751Z,61.70
2018-07-05T22:28:04.573Z,62.00
2018-07-05T22:33:19.064Z,62.50
2018-07-05T22:38:33.540Z,62.70
2018-07-05T22:43:48.026Z,62.80
2018-07-05T22:49:02.572Z,62.80
2018-07-05T22:54:17.071Z,63.00
2018-07-05T22:59:31.508Z,63.30
2018-07-05T23:04:46.159Z,63.10
2018-07-05T23:10:00.689Z,63.20
2018-07-05T23:15:15.004Z,63.20
2018-07-05T23:20:29.584Z,63.00
2018-07-05T23:25:44.105Z,63.20
2018-07-05T23:30:58.500Z,63.70
2018-07-05T23:36:12.861Z,63.90
2018-07-05T23:41:27.450Z,64.00
2018-07-05T23:46:41.921Z,64.10
2018-07-05T23:51:56.459Z,64.40
2018-07-05T23:57:10.945Z,64.70
